createdAt,value
2022-10-03T00:01:53.427Z,9.20
2022-10-03T00:04:45.102Z,8.57
2022-10-03T00:07:21.293Z,9.10
2022-10-03T00:10:14.590Z,9.60
2022-10-03T00:12:52.758Z,9.38
2022-10-03T00:15:28.328Z,8.90
2022-10-03T00:18:24.199Z,7.97
2022-10-03T00:21:09.131Z,8.55
2022-10-03T00:24:11.300Z,8.63
2022-10-03T00:26:44.005Z,8.23
2022-10-03T00:29:29.174Z,8.35
2022-10-03T00:32:11.137Z,8.02
2022-10-03T00:34:43.649Z,7.70
2022-10-03T00:37:23.415Z,6.70
2022-10-03T00:39:58.014Z,6.30
2022-10-03T00:42:49.639Z,7.45
2022-10-03T00:45:31.308Z,7.57
2022-10-03T00:48:35.300Z,6.93
2022-10-03T00:51:16.889Z,7.90
2022-10-03T00:54:26.502Z,7.60
2022-10-03T00:57:28.062Z,7.57
2022-10-03T01:00:19.132Z,7.20
2022-10-03T01:03:05.062Z,6.10
2022-10-03T01:06:14.933Z,7.38
2022-10-03T01:08:59.480Z,7.05
2022-10-03T01:11:48.492Z,6.68
2022-10-03T01:14:41.154Z,6.25
2022-10-03T01:17:49.618Z,6.57
2022-10-03T01:20:28.426Z,5.65
2022-10-03T01:23:08.252Z,6.68
2022-10-03T01:25:53.377Z,6.57
2022-10-03T01:28:57.293Z,6.55
2022-10-03T01:31:39.007Z,6.88
2022-10-03T01:34:16.087Z,6.68
2022-10-03T01:37:17.422Z,6.03
2022-10-03T01:39:50.381Z,6.10
2022-10-03T01:42:35.800Z,6.55
2022-10-03T01:45:16.806Z,6.07
2022-10-03T01:47:51.366Z,6.47
2022-10-03T01:50:36.949Z,6.10
2022-10-03T01:55:48.015Z,6.78
2022-10-03T01:58:39.077Z,7.78
2022-10-03T02:01:14.201Z,5.93
2022-10-03T02:06:25.034Z,8.07
2022-10-03T02:09:00.793Z,6.93
2022-10-03T02:11:39.168Z,9.20
2022-10-03T02:14:39.529Z,8.10
2022-10-03T02:17:42.179Z,7.25
2022-10-03T02:20:25.596Z,7.20
2022-10-03T02:22:57.774Z,7.03
2022-10-03T02:25:27.345Z,7.72
2022-10-03T02:28:03.082Z,7.10
2022-10-03T02:30:59.291Z,7.35
2022-10-03T02:33:49.738Z,6.97
2022-10-03T02:36:59.585Z,8.52
2022-10-03T02:39:44.178Z,8.35
2022-10-03T02:42:42.915Z,8.77
2022-10-03T02:45:40.246Z,8.82
2022-10-03T02:48:32.400Z,8.60
2022-10-03T02:51:14.326Z,7.05
2022-10-03T02:53:51.151Z,7.93
2022-10-03T02:56:51.228Z,7.22
2022-10-03T02:59:45.689Z,7.97
2022-10-03T03:02:12.267Z,7.15
2022-10-03T03:05:16.402Z,7.78
2022-10-03T03:08:04.156Z,7.65
2022-10-03T03:10:59.466Z,8.15
2022-10-03T03:14:02.901Z,8.80
2022-10-03T03:16:54.101Z,8.88
2022-10-03T03:19:48.676Z,9.00
2022-10-03T03:22:33.213Z,8.32
2022-10-03T03:25:19.138Z,8.43
2022-10-03T03:28:16.820Z,8.68
2022-10-03T03:30:52.825Z,8.75
2022-10-03T03:33:31.633Z,8.50
2022-10-03T03:36:13.666Z,9.40
2022-10-03T03:39:17.353Z,9.18
2022-10-03T03:42:02.192Z,8.02
2022-10-03T03:44:56.537Z,8.02
2022-10-03T03:47:36.395Z,8.18
2022-10-03T03:50:32.021Z,8.73
2022-10-03T03:53:29.944Z,8.07
2022-10-03T03:56:08.503Z,7.55
2022-10-03T03:58:47.136Z,7.97
2022-10-03T04:01:43.459Z,8.43
2022-10-03T04:04:37.708Z,8.50
2022-10-03T04:07:26.233Z,7.60
2022-10-03T04:10:16.334Z,7.75
2022-10-03T04:13:18.949Z,8.75
2022-10-03T04:16:00.133Z,9.70
2022-10-03T04:18:57.539Z,8.93
2022-10-03T04:21:43.007Z,8.55
2022-10-03T04:27:16.340Z,8.68
2022-10-03T04:29:57.273Z,8.95
2022-10-03T04:33:01.350Z,8.27
2022-10-03T04:35:52.825Z,7.97
2022-10-03T04:38:57.275Z,8.52
2022-10-03T04:41:58.211Z,8.00
2022-10-03T04:44:56.961Z,8.18
2022-10-03T04:47:51.326Z,8.70
2022-10-03T04:50:40.223Z,8.05
2022-10-03T04:53:21.307Z,9.10
2022-10-03T04:55:54.211Z,9.10
2022-10-03T04:58:38.911Z,10.32
2022-10-03T05:01:20.425Z,9.40
2022-10-03T05:04:10.516Z,9.48
2022-10-03T05:07:02.435Z,9.90
2022-10-03T05:09:53.145Z,10.73
2022-10-03T05:12:41.099Z,8.90
2022-10-03T05:15:29.334Z,9.10
2022-10-03T05:18:24.648Z,9.60
2022-10-03T05:20:59.077Z,10.02
2022-10-03T05:23:40.685Z,9.80
2022-10-03T05:26:43.056Z,9.65
2022-10-03T05:29:27.596Z,9.50
2022-10-03T05:32:15.278Z,10.13
2022-10-03T05:34:50.650Z,8.95
2022-10-03T05:37:48.230Z,9.20
2022-10-03T05:40:21.203Z,8.95
2022-10-03T05:42:53.491Z,9.40
2022-10-03T05:45:25.986Z,10.07
2022-10-03T05:48:10.663Z,9.77
2022-10-03T05:50:41.861Z,10.40
2022-10-03T05:53:17.945Z,10.32
2022-10-03T05:56:05.767Z,11.52
2022-10-03T05:59:05.401Z,11.32
2022-10-03T06:01:53.450Z,10.82
2022-10-03T06:04:39.163Z,9.60
2022-10-03T06:07:28.413Z,11.13
2022-10-03T06:10:06.678Z,10.27
2022-10-03T06:12:56.657Z,11.48
2022-10-03T06:15:38.332Z,10.82
2022-10-03T06:18:51.578Z,10.13
2022-10-03T06:21:42.954Z,10.05
2022-10-03T06:24:46.989Z,10.25
2022-10-03T06:27:16.516Z,9.40
2022-10-03T06:29:58.597Z,8.80
2022-10-03T06:32:46.918Z,8.70
2022-10-03T06:35:43.459Z,8.27
2022-10-03T06:38:45.904Z,8.70
2022-10-03T06:41:33.189Z,9.30
2022-10-03T06:44:22.806Z,8.38
2022-10-03T06:47:28.127Z,9.38
2022-10-03T06:50:13.246Z,9.60
2022-10-03T06:53:01.531Z,9.02
2022-10-03T06:55:50.703Z,10.00
2022-10-03T06:58:36.145Z,8.88
2022-10-03T07:01:11.502Z,10.77
2022-10-03T07:03:56.677Z,10.20
2022-10-03T07:06:48.610Z,10.38
2022-10-03T07:09:36.963Z,10.38
2022-10-03T07:12:16.745Z,10.32
2022-10-03T07:15:13.363Z,10.63
2022-10-03T07:17:54.901Z,10.32
2022-10-03T07:20:59.230Z,10.60
2022-10-03T07:23:41.961Z,11.32
2022-10-03T07:26:43.824Z,12.15
2022-10-03T07:29:25.720Z,11.77
2022-10-03T07:32:13.239Z,11.98
2022-10-03T07:35:27.101Z,11.00
2022-10-03T07:38:46.797Z,11.77
2022-10-03T07:41:41.051Z,14.38
2022-10-03T07:44:33.647Z,13.52
2022-10-03T07:47:38.477Z,11.65
2022-10-03T07:50:49.672Z,14.07
2022-10-03T07:53:27.990Z,11.65
2022-10-03T07:56:04.899Z,13.15
2022-10-03T07:58:51.994Z,13.55
2022-10-03T08:01:40.204Z,13.00
2022-10-03T08:04:34.472Z,13.18
2022-10-03T08:07:32.715Z,14.77
2022-10-03T08:10:29.340Z,14.05
2022-10-03T08:13:34.786Z,14.52
2022-10-03T08:16:35.552Z,15.00
2022-10-03T08:19:18.467Z,16.17
2022-10-03T08:22:22.074Z,16.52
2022-10-03T08:25:25.890Z,15.77
2022-10-03T08:28:23.507Z,16.75
2022-10-03T08:31:08.065Z,18.30
2022-10-03T08:33:45.050Z,18.52
2022-10-03T08:36:54.566Z,20.20
2022-10-03T08:39:45.303Z,19.23
2022-10-03T08:42:48.026Z,18.52
2022-10-03T08:46:08.762Z,17.30
2022-10-03T08:48:44.328Z,16.58
2022-10-03T08:51:49.591Z,17.05
2022-10-03T08:54:39.033Z,15.52
2022-10-03T08:57:08.526Z,15.43
2022-10-03T09:00:19.851Z,15.70
2022-10-03T09:03:13.936Z,15.63
2022-10-03T09:05:49.043Z,16.02
2022-10-03T09:08:44.814Z,15.73
2022-10-03T09:11:42.644Z,15.27
2022-10-03T09:14:38.811Z,15.70
2022-10-03T09:17:23.257Z,15.63
2022-10-03T09:20:02.149Z,17.55
2022-10-03T09:22:59.927Z,15.32
2022-10-03T09:25:41.449Z,14.55
2022-10-03T09:28:40.841Z,14.13
2022-10-03T09:31:16.254Z,13.43
2022-10-03T09:34:00.307Z,13.82
2022-10-03T09:36:54.671Z,13.50
2022-10-03T09:39:33.830Z,33.35
2022-10-03T09:42:51.169Z,10.38
2022-10-03T09:45:42.182Z,9.65
2022-10-03T09:48:55.645Z,9.52
2022-10-03T09:51:59.740Z,10.00
2022-10-03T09:54:44.018Z,9.13
2022-10-03T09:57:45.889Z,8.07
2022-10-03T10:00:22.614Z,8.23
2022-10-03T10:03:02.277Z,7.82
2022-10-03T10:06:03.714Z,8.18
2022-10-03T10:09:08.131Z,8.75
2022-10-03T10:12:02.994Z,7.80
2022-10-03T10:14:53.942Z,8.05
2022-10-03T10:17:51.853Z,6.85
2022-10-03T10:20:28.466Z,5.80
2022-10-03T10:23:13.095Z,5.60
2022-10-03T10:26:00.666Z,5.15
2022-10-03T10:29:00.454Z,5.15
2022-10-03T10:32:04.929Z,3.58
2022-10-03T10:34:53.416Z,2.35
2022-10-03T10:37:35.582Z,2.35
2022-10-03T10:40:10.298Z,2.45
2022-10-03T10:43:01.245Z,3.25
2022-10-03T10:46:09.587Z,3.85
2022-10-03T10:48:48.500Z,3.33
2022-10-03T10:51:48.364Z,2.80
2022-10-03T10:54:39.482Z,3.30
2022-10-03T10:57:09.463Z,2.50
2022-10-03T11:00:15.064Z,2.53
2022-10-03T11:03:19.614Z,1.42
2022-10-03T11:06:23.942Z,1.70
2022-10-03T11:09:09.969Z,1.80
2022-10-03T11:11:55.243Z,1.88
2022-10-03T11:15:00.044Z,2.20
2022-10-03T11:17:26.747Z,1.80
2022-10-03T11:19:53.208Z,2.17
2022-10-03T11:22:37.548Z,2.13
2022-10-03T11:25:44.183Z,2.30
2022-10-03T11:28:48.700Z,2.00
2022-10-03T11:32:10.007Z,2.60
2022-10-03T11:35:08.022Z,2.38
2022-10-03T11:37:41.382Z,2.53
2022-10-03T11:40:34.882Z,2.38
2022-10-03T11:43:38.800Z,2.58
2022-10-03T11:46:34.383Z,2.25
2022-10-03T11:49:26.200Z,2.45
2022-10-03T11:52:10.834Z,2.90
2022-10-03T11:54:42.327Z,2.78
2022-10-03T11:57:17.184Z,2.60
2022-10-03T12:00:01.201Z,2.63
2022-10-03T12:02:30.898Z,2.60
2022-10-03T12:05:00.162Z,2.53
2022-10-03T12:08:22.782Z,1.95
2022-10-03T12:11:07.299Z,2.40
2022-10-03T12:13:45.910Z,2.20
2022-10-03T12:16:27.567Z,2.30
2022-10-03T12:19:17.526Z,2.13
2022-10-03T12:21:59.202Z,2.08
2022-10-03T12:24:34.492Z,1.90
2022-10-03T12:27:10.106Z,1.88
2022-10-03T12:29:39.948Z,1.73
2022-10-03T12:32:30.638Z,1.88
2022-10-03T12:35:10.998Z,2.53
2022-10-03T12:38:21.325Z,2.35
2022-10-03T12:41:22.749Z,2.05
2022-10-03T12:43:52.143Z,2.10
2022-10-03T12:46:51.022Z,1.30
2022-10-03T12:50:01.115Z,1.38
2022-10-03T12:52:39.339Z,1.55
2022-10-03T12:55:23.682Z,1.80
2022-10-03T12:58:25.285Z,1.88
2022-10-03T13:01:06.663Z,1.95
2022-10-03T13:03:57.510Z,1.70
2022-10-03T13:07:02.472Z,1.70
2022-10-03T13:09:30.567Z,1.63
2022-10-03T13:12:08.464Z,1.90
2022-10-03T13:15:00.024Z,1.33
2022-10-03T13:17:51.275Z,2.13
2022-10-03T13:20:39.228Z,1.92
2022-10-03T13:23:19.947Z,2.17
2022-10-03T13:26:07.530Z,2.38
2022-10-03T13:29:10.855Z,2.35
2022-10-03T13:31:53.891Z,2.28
2022-10-03T13:34:23.902Z,2.10
2022-10-03T13:37:04.855Z,1.65
2022-10-03T13:39:45.303Z,2.05
2022-10-03T13:42:28.490Z,1.75
2022-10-03T13:45:00.414Z,1.55
2022-10-03T13:47:31.034Z,1.90
2022-10-03T13:50:01.285Z,1.70
2022-10-03T13:52:37.126Z,2.10
2022-10-03T13:55:32.443Z,2.53
2022-10-03T13:58:26.058Z,2.67
2022-10-03T14:01:11.406Z,2.50
2022-10-03T14:04:05.540Z,2.63
2022-10-03T14:06:57.433Z,2.58
2022-10-03T14:09:39.146Z,3.35
2022-10-03T14:12:51.214Z,2.35
2022-10-03T14:15:44.195Z,2.35
2022-10-03T14:18:23.247Z,2.50
2022-10-03T14:21:08.734Z,2.58
2022-10-03T14:23:47.990Z,2.58
2022-10-03T14:26:37.834Z,2.47
2022-10-03T14:29:28.088Z,2.65
2022-10-03T14:32:46.080Z,2.45
2022-10-03T14:35:29.027Z,2.50
2022-10-03T14:39:01.836Z,2.25
2022-10-03T14:41:45.594Z,1.88
2022-10-03T14:44:23.750Z,2.88
2022-10-03T14:47:07.305Z,2.60
2022-10-03T14:49:57.842Z,2.35
2022-10-03T14:52:44.631Z,2.42
2022-10-03T14:55:31.656Z,2.00
2022-10-03T14:58:13.065Z,2.30
2022-10-03T15:00:55.197Z,2.50
2022-10-03T15:03:30.439Z,2.33
2022-10-03T15:05:57.066Z,2.33
2022-10-03T15:08:29.609Z,2.17
2022-10-03T15:10:56.914Z,2.30
2022-10-03T15:13:24.968Z,2.85
2022-10-03T15:15:55.627Z,2.50
2022-10-03T15:18:24.387Z,2.50
2022-10-03T15:20:54.881Z,2.53
2022-10-03T15:23:30.544Z,2.50
2022-10-03T15:25:58.453Z,2.72
2022-10-03T15:28:29.185Z,2.70
2022-10-03T15:31:07.083Z,2.90
2022-10-03T15:33:36.841Z,2.95
2022-10-03T15:36:24.542Z,2.38
2022-10-03T15:39:00.890Z,2.78
2022-10-03T15:41:28.022Z,2.60
2022-10-03T15:43:57.494Z,3.13
2022-10-03T15:46:31.926Z,3.10
2022-10-03T15:49:13.780Z,3.10
2022-10-03T15:51:40.619Z,2.70
2022-10-03T15:54:11.686Z,2.95
2022-10-03T15:56:42.162Z,3.08
2022-10-03T15:59:18.018Z,3.33
2022-10-03T16:01:47.632Z,3.40
2022-10-03T16:04:22.899Z,3.58
2022-10-03T16:09:21.997Z,3.22
2022-10-03T16:12:24.621Z,3.55
2022-10-03T16:15:17.280Z,4.22
2022-10-03T16:17:49.986Z,4.30
2022-10-03T16:20:22.316Z,4.28
2022-10-03T16:22:53.166Z,4.28
2022-10-03T16:25:22.252Z,4.35
2022-10-03T16:27:57.355Z,4.03
2022-10-03T16:33:18.007Z,4.03
2022-10-03T16:35:54.137Z,3.88
2022-10-03T16:38:47.870Z,5.15
2022-10-03T16:41:25.571Z,4.60
2022-10-03T16:44:00.655Z,5.03
2022-10-03T16:46:34.977Z,5.10
2022-10-03T16:49:27.769Z,5.07
2022-10-03T16:52:21.718Z,5.47
2022-10-03T16:54:57.128Z,5.55
2022-10-03T16:57:43.879Z,5.85
2022-10-03T17:00:17.378Z,6.07
2022-10-03T17:02:45.088Z,7.03
2022-10-03T17:05:14.098Z,8.50
2022-10-03T17:07:43.952Z,7.43
2022-10-03T17:10:22.263Z,8.45
2022-10-03T17:12:53.257Z,10.60
2022-10-03T17:15:23.407Z,11.30
2022-10-03T17:18:25.269Z,11.40
2022-10-03T17:21:00.605Z,9.30
2022-10-03T17:23:37.095Z,9.75
2022-10-03T17:26:16.814Z,8.15
2022-10-03T17:28:54.451Z,6.50
2022-10-03T17:31:29.803Z,7.05
2022-10-03T17:34:01.930Z,7.35
2022-10-03T17:36:56.270Z,6.68
2022-10-03T17:40:11.031Z,7.00
2022-10-03T17:42:46.365Z,7.00
2022-10-03T17:45:54.224Z,6.65
2022-10-03T17:49:18.681Z,7.05
2022-10-03T17:51:48.078Z,5.82
2022-10-03T17:54:30.100Z,7.78
2022-10-03T17:57:18.514Z,7.20
2022-10-03T17:59:52.373Z,6.97
2022-10-03T18:02:36.903Z,6.50
2022-10-03T18:05:19.401Z,6.85
2022-10-03T18:07:48.790Z,6.97
2022-10-03T18:10:34.147Z,6.55
2022-10-03T18:13:03.721Z,6.43
2022-10-03T18:15:52.065Z,7.18
2022-10-03T18:18:35.232Z,7.18
2022-10-03T18:21:15.324Z,7.35
2022-10-03T18:24:01.865Z,6.93
2022-10-03T18:26:37.140Z,7.57
2022-10-03T18:29:31.516Z,7.10
2022-10-03T18:32:18.856Z,7.72
2022-10-03T18:35:12.726Z,7.88
2022-10-03T18:37:45.276Z,8.13
2022-10-03T18:40:44.752Z,8.20
2022-10-03T18:43:24.131Z,8.00
2022-10-03T18:45:56.899Z,8.70
2022-10-03T18:48:34.968Z,8.68
2022-10-03T18:51:15.574Z,7.80
2022-10-03T18:53:47.986Z,8.27
2022-10-03T18:56:25.081Z,9.75
2022-10-03T18:59:15.691Z,10.02
2022-10-03T19:01:56.721Z,11.20
2022-10-03T19:04:39.633Z,11.65
2022-10-03T19:07:19.989Z,10.88
2022-10-03T19:10:25.864Z,10.80
2022-10-03T19:13:01.476Z,11.50
2022-10-03T19:15:55.602Z,15.20
2022-10-03T19:18:29.470Z,14.75
2022-10-03T19:21:04.366Z,14.88
2022-10-03T19:23:34.057Z,13.77
2022-10-03T19:26:08.502Z,12.20
2022-10-03T19:28:43.956Z,11.45
2022-10-03T19:31:24.638Z,10.98
2022-10-03T19:34:00.899Z,10.43
2022-10-03T19:36:31.390Z,9.23
2022-10-03T19:38:59.553Z,9.25
2022-10-03T19:41:28.697Z,10.00
2022-10-03T19:43:56.950Z,9.73
2022-10-03T19:46:57.875Z,9.13
2022-10-03T19:49:44.637Z,9.70
2022-10-03T19:52:17.394Z,9.90
2022-10-03T19:55:22.138Z,10.18
2022-10-03T19:57:59.297Z,10.05
2022-10-03T20:00:37.444Z,9.60
2022-10-03T20:03:08.634Z,10.40
2022-10-03T20:06:06.711Z,11.75
2022-10-03T20:08:48.808Z,11.13
2022-10-03T20:11:25.567Z,11.98
2022-10-03T20:13:54.031Z,11.45
2022-10-03T20:16:29.831Z,11.82
2022-10-03T20:19:05.514Z,10.90
2022-10-03T20:21:33.349Z,10.93
2022-10-03T20:24:01.222Z,11.68
2022-10-03T20:26:39.394Z,12.30
2022-10-03T20:29:24.474Z,11.85
2022-10-03T20:31:51.871Z,12.45
2022-10-03T20:34:23.105Z,11.10
2022-10-03T20:37:00.737Z,13.00
2022-10-03T20:39:37.764Z,12.38
2022-10-03T20:42:25.853Z,11.80
2022-10-03T20:44:56.646Z,12.80
2022-10-03T20:47:45.235Z,12.68
2022-10-03T20:50:36.066Z,12.75
2022-10-03T20:53:10.991Z,12.05
2022-10-03T20:56:08.547Z,12.45
2022-10-03T20:58:48.004Z,11.77
2022-10-03T21:01:22.245Z,12.27
2022-10-03T21:04:14.379Z,11.98
2022-10-03T21:07:16.277Z,12.13
2022-10-03T21:10:02.134Z,12.68
2022-10-03T21:12:40.707Z,13.15
2022-10-03T21:15:16.960Z,12.07
2022-10-03T21:17:45.312Z,12.90
2022-10-03T21:20:26.318Z,12.27
2022-10-03T21:22:57.067Z,12.35
2022-10-03T21:25:34.894Z,13.90
2022-10-03T21:28:04.298Z,13.85
2022-10-03T21:30:53.356Z,14.57
2022-10-03T21:33:30.053Z,14.15
2022-10-03T21:36:12.421Z,12.60
2022-10-03T21:38:43.122Z,12.40
2022-10-03T21:41:34.727Z,12.30
2022-10-03T21:44:12.292Z,13.05
2022-10-03T21:46:51.219Z,12.55
2022-10-03T21:49:35.463Z,12.88
2022-10-03T21:52:22.376Z,12.45
2022-10-03T21:55:50.802Z,12.20
2022-10-03T21:58:43.970Z,12.02
2022-10-03T22:01:25.073Z,11.90
2022-10-03T22:04:03.768Z,11.73
2022-10-03T22:06:42.562Z,12.00
2022-10-03T22:09:14.857Z,12.43
2022-10-03T22:11:53.301Z,13.38
2022-10-03T22:14:44.371Z,12.20
2022-10-03T22:17:13.927Z,12.93
2022-10-03T22:19:59.061Z,11.07
2022-10-03T22:22:50.262Z,12.57
2022-10-03T22:25:47.737Z,12.55
2022-10-03T22:28:37.838Z,12.48
2022-10-03T22:31:37.081Z,11.30
2022-10-03T22:34:34.430Z,11.23
2022-10-03T22:37:01.704Z,11.93
2022-10-03T22:39:28.969Z,11.27
2022-10-03T22:41:59.234Z,11.48
2022-10-03T22:44:30.495Z,11.18
2022-10-03T22:47:03.146Z,12.07
2022-10-03T22:49:38.146Z,11.57
2022-10-03T22:52:07.105Z,12.15
2022-10-03T22:54:37.581Z,10.40
2022-10-03T22:57:10.025Z,10.70
2022-10-03T22:59:46.773Z,10.85
2022-10-03T23:02:15.245Z,10.52
2022-10-03T23:04:52.384Z,10.93
2022-10-03T23:07:29.340Z,11.02
2022-10-03T23:10:07.025Z,11.50
2022-10-03T23:12:43.389Z,11.23
2022-10-03T23:15:14.733Z,10.82
2022-10-03T23:18:03.150Z,12.07
2022-10-03T23:20:47.685Z,12.40
2022-10-03T23:23:23.238Z,11.45
2022-10-03T23:25:59.925Z,11.07
2022-10-03T23:28:38.387Z,10.95
2022-10-03T23:31:05.339Z,11.15
2022-10-03T23:33:34.647Z,11.10
2022-10-03T23:36:14.805Z,11.18
2022-10-03T23:38:41.397Z,11.32
2022-10-03T23:41:29.669Z,11.18
2022-10-03T23:43:57.445Z,11.27
2022-10-03T23:46:30.796Z,10.73
2022-10-03T23:49:00.130Z,10.07
2022-10-03T23:51:34.622Z,10.52
2022-10-03T23:54:04.891Z,10.57
2022-10-03T23:56:38.080Z,10.27
2022-10-03T23:59:05.028Z,10.15
